createdAt,value
2022-09-21T00:00:37.098Z,7.49
2022-09-21T00:01:37.029Z,7.43
2022-09-21T00:02:36.995Z,7.40
2022-09-21T00:03:36.943Z,7.34
2022-09-21T00:04:36.921Z,7.30
2022-09-21T00:05:36.919Z,7.28
2022-09-21T00:06:36.907Z,7.25
2022-09-21T00:07:36.900Z,7.30
2022-09-21T00:08:36.897Z,7.30
2022-09-21T00:09:36.878Z,7.30
2022-09-21T00:10:36.861Z,7.34
2022-09-21T00:11:36.870Z,7.34
2022-09-21T00:12:37.641Z,7.34
2022-09-21T00:13:36.832Z,7.31
2022-09-21T00:14:36.822Z,7.30
2022-09-21T00:15:36.809Z,7.27
2022-09-21T00:16:37.043Z,7.28
2022-09-21T00:17:36.801Z,7.31
2022-09-21T00:18:36.791Z,7.34
2022-09-21T00:19:36.773Z,7.34
2022-09-21T00:20:36.763Z,7.34
2022-09-21T00:21:36.752Z,7.37
2022-09-21T00:22:36.851Z,7.35
2022-09-21T00:23:36.732Z,7.35
2022-09-21T00:24:36.723Z,7.34
2022-09-21T00:25:37.529Z,7.35
2022-09-21T00:26:36.702Z,7.32
2022-09-21T00:27:36.684Z,7.34
2022-09-21T00:28:36.684Z,7.32
2022-09-21T00:29:36.878Z,7.30
2022-09-21T00:30:36.885Z,7.28
2022-09-21T00:31:36.714Z,7.25
2022-09-21T00:32:36.646Z,7.25
2022-09-21T00:33:36.646Z,7.24
2022-09-21T00:34:36.777Z,7.24
2022-09-21T00:35:36.617Z,7.16
2022-09-21T00:36:36.596Z,7.17
2022-09-21T00:37:36.577Z,7.12
2022-09-21T00:38:36.578Z,7.10
2022-09-21T00:39:36.577Z,7.02
2022-09-21T00:40:36.613Z,6.99
2022-09-21T00:41:36.538Z,6.95
2022-09-21T00:42:36.535Z,6.98
2022-09-21T00:43:36.518Z,6.98
2022-09-21T00:44:36.510Z,6.97
2022-09-21T00:45:36.595Z,6.99
2022-09-21T00:46:36.499Z,7.02
2022-09-21T00:47:36.481Z,7.02
2022-09-21T00:48:36.468Z,6.99
2022-09-21T00:49:36.459Z,7.02
2022-09-21T00:58:13.120Z,6.95
2022-09-21T00:59:13.117Z,6.94
2022-09-21T01:00:13.085Z,6.94
2022-09-21T01:01:13.160Z,6.92
2022-09-21T01:02:13.105Z,6.94
2022-09-21T01:03:13.148Z,6.92
2022-09-21T01:04:13.045Z,6.88
2022-09-21T01:05:13.048Z,6.89
2022-09-21T01:06:13.018Z,6.85
2022-09-21T01:07:13.038Z,6.81
2022-09-21T01:08:13.299Z,6.76
2022-09-21T01:09:12.999Z,6.73
2022-09-21T01:10:12.987Z,6.69
2022-09-21T01:11:12.980Z,6.67
2022-09-21T01:12:13.769Z,6.66
2022-09-21T01:13:13.810Z,6.62
2022-09-21T01:14:12.947Z,6.64
2022-09-21T01:15:12.941Z,6.64
2022-09-21T01:16:13.003Z,6.67
2022-09-21T01:17:12.921Z,6.71
2022-09-21T01:18:12.908Z,6.77
2022-09-21T01:19:12.966Z,6.76
2022-09-21T01:20:12.882Z,6.80
2022-09-21T01:21:12.882Z,6.77
2022-09-21T01:22:12.888Z,6.79
2022-09-21T01:23:12.852Z,6.81
2022-09-21T01:24:12.842Z,6.79
2022-09-21T01:25:12.834Z,6.74
2022-09-21T01:26:12.812Z,6.77
2022-09-21T01:27:12.805Z,6.77
2022-09-21T01:28:12.793Z,6.77
2022-09-21T01:29:12.794Z,6.77
2022-09-21T01:30:12.772Z,6.80
2022-09-21T01:31:12.803Z,6.81
2022-09-21T01:32:12.884Z,6.84
2022-09-21T01:33:12.744Z,6.89
2022-09-21T01:34:12.725Z,6.89
2022-09-21T01:35:12.723Z,6.89
2022-09-21T01:36:12.713Z,6.87
2022-09-21T01:37:12.700Z,6.87
2022-09-21T01:38:12.694Z,6.84
2022-09-21T01:39:12.686Z,6.81
2022-09-21T01:40:13.368Z,6.81
2022-09-21T01:41:12.668Z,6.79
2022-09-21T01:42:12.647Z,6.79
2022-09-21T01:43:12.789Z,6.76
2022-09-21T01:44:12.629Z,6.77
2022-09-21T01:45:12.628Z,6.76
2022-09-21T01:46:12.616Z,6.74
2022-09-21T01:47:12.599Z,6.70
2022-09-21T01:48:12.582Z,6.73
2022-09-21T01:49:12.588Z,6.69
2022-09-21T01:50:12.558Z,6.67
2022-09-21T01:51:12.548Z,6.66
2022-09-21T01:52:12.548Z,6.64
2022-09-21T01:53:12.559Z,6.61
2022-09-21T01:54:12.520Z,6.59
2022-09-21T01:55:12.511Z,6.55
2022-09-21T01:56:12.500Z,6.56
2022-09-21T01:57:12.490Z,6.52
2022-09-21T01:58:12.470Z,6.48
2022-09-21T01:59:12.470Z,6.49
2022-09-21T02:00:12.476Z,6.49
2022-09-21T02:01:12.526Z,6.46
2022-09-21T02:02:12.673Z,6.48
2022-09-21T02:03:12.431Z,6.44
2022-09-21T02:04:12.409Z,6.46
2022-09-21T02:05:12.416Z,6.43
2022-09-21T02:06:12.412Z,6.44
2022-09-21T02:07:13.213Z,6.41
2022-09-21T02:08:12.367Z,6.46
2022-09-21T02:09:12.364Z,6.41
2022-09-21T02:10:12.352Z,6.43
2022-09-21T02:11:12.342Z,6.44
2022-09-21T02:12:15.649Z,6.43
2022-09-21T02:13:14.776Z,6.44
2022-09-21T02:14:12.303Z,6.44
2022-09-21T02:15:12.295Z,6.44
2022-09-21T02:16:12.400Z,6.44
2022-09-21T02:17:12.885Z,6.48
2022-09-21T02:18:12.262Z,6.49
2022-09-21T02:19:12.259Z,6.51
2022-09-21T02:20:12.244Z,6.55
2022-09-21T02:21:12.236Z,6.54
2022-09-21T02:22:12.226Z,6.49
2022-09-21T02:23:12.205Z,6.46
2022-09-21T02:24:12.197Z,6.46
2022-09-21T02:25:12.196Z,6.43
2022-09-21T02:26:12.168Z,6.44
2022-09-21T02:27:12.166Z,6.44
2022-09-21T02:28:12.202Z,6.48
2022-09-21T02:29:12.158Z,6.49
2022-09-21T02:30:12.126Z,6.51
2022-09-21T02:31:12.185Z,6.48
2022-09-21T02:32:12.107Z,6.48
2022-09-21T02:33:12.098Z,6.49
2022-09-21T02:34:12.459Z,6.49
2022-09-21T02:35:12.078Z,6.49
2022-09-21T02:36:12.079Z,6.51
2022-09-21T02:37:12.068Z,6.54
2022-09-21T02:38:12.066Z,6.55
2022-09-21T02:39:12.037Z,6.56
2022-09-21T02:40:12.075Z,6.56
2022-09-21T02:41:12.010Z,6.55
2022-09-21T02:42:12.001Z,6.52
2022-09-21T02:43:12.004Z,6.52
2022-09-21T02:44:11.981Z,6.52
2022-09-21T02:45:11.971Z,6.49
2022-09-21T02:46:11.967Z,6.48
2022-09-21T02:47:11.982Z,6.46
2022-09-21T02:48:11.933Z,6.43
2022-09-21T02:49:11.940Z,6.41
2022-09-21T02:50:11.928Z,6.40
2022-09-21T02:51:11.912Z,6.38
2022-09-21T02:52:11.900Z,6.38
2022-09-21T02:53:11.893Z,6.37
2022-09-21T02:54:11.872Z,6.33
2022-09-21T02:55:11.873Z,6.31
2022-09-21T02:56:11.865Z,6.28
2022-09-21T02:57:11.854Z,6.22
2022-09-21T02:58:11.831Z,6.17
2022-09-21T02:59:11.824Z,6.11
2022-09-21T03:00:11.824Z,6.06
2022-09-21T03:01:11.805Z,6.04
2022-09-21T03:02:11.875Z,6.06
2022-09-21T03:03:11.777Z,6.04
2022-09-21T03:04:11.766Z,6.04
2022-09-21T03:05:11.756Z,6.06
2022-09-21T03:06:11.754Z,6.11
2022-09-21T03:07:11.736Z,6.15
2022-09-21T03:08:11.726Z,6.11
2022-09-21T03:09:11.736Z,6.06
2022-09-21T03:10:11.707Z,6.06
2022-09-21T03:11:11.756Z,6.01
2022-09-21T03:12:11.717Z,6.06
2022-09-21T03:13:11.687Z,6.04
2022-09-21T03:14:11.660Z,6.03
2022-09-21T03:15:11.647Z,6.03
2022-09-21T03:16:11.670Z,6.03
2022-09-21T03:17:11.631Z,6.03
2022-09-21T03:18:11.617Z,6.04
2022-09-21T03:19:12.435Z,6.04
2022-09-21T03:20:11.592Z,6.06
2022-09-21T03:21:11.593Z,6.06
2022-09-21T03:22:11.559Z,6.04
2022-09-21T03:23:11.572Z,6.03
2022-09-21T03:24:11.639Z,6.03
2022-09-21T03:25:11.589Z,5.97
2022-09-21T03:26:11.532Z,5.96
2022-09-21T03:27:11.522Z,5.96
2022-09-21T03:28:11.501Z,5.94
2022-09-21T03:29:11.509Z,5.97
2022-09-21T03:30:11.481Z,5.97
2022-09-21T03:31:11.490Z,5.93
2022-09-21T03:32:11.462Z,5.93
2022-09-21T03:33:11.460Z,5.91
2022-09-21T03:34:11.462Z,5.90
2022-09-21T03:35:11.451Z,5.91
2022-09-21T03:36:11.432Z,5.91
2022-09-21T03:37:11.412Z,5.93
2022-09-21T03:38:11.413Z,5.93
2022-09-21T03:39:11.391Z,5.91
2022-09-21T03:40:11.424Z,5.93
2022-09-21T03:41:11.373Z,5.91
2022-09-21T03:42:11.463Z,5.93
2022-09-21T03:43:11.343Z,5.90
2022-09-21T03:44:11.331Z,5.91
2022-09-21T03:45:11.332Z,5.90
2022-09-21T03:46:11.409Z,5.94
2022-09-21T03:47:12.122Z,5.94
2022-09-21T03:48:11.392Z,5.94
2022-09-21T03:49:11.286Z,5.90
2022-09-21T03:50:11.272Z,5.91
2022-09-21T03:51:11.302Z,5.93
2022-09-21T03:52:11.254Z,5.94
2022-09-21T03:53:11.255Z,5.94
2022-09-21T03:54:11.226Z,5.91
2022-09-21T03:55:11.227Z,5.91
2022-09-21T03:56:11.215Z,5.85
2022-09-21T03:57:11.205Z,5.89
2022-09-21T03:58:11.227Z,5.85
2022-09-21T03:59:14.149Z,5.82
2022-09-21T04:00:11.167Z,5.82
2022-09-21T04:01:11.227Z,5.79
2022-09-21T04:02:11.137Z,5.81
2022-09-21T04:03:11.158Z,5.81
2022-09-21T04:04:11.126Z,5.79
2022-09-21T04:05:11.118Z,5.81
2022-09-21T04:06:11.096Z,5.78
2022-09-21T04:07:11.099Z,5.79
2022-09-21T04:08:11.080Z,5.79
2022-09-21T04:09:11.098Z,5.78
2022-09-21T04:10:11.137Z,5.75
2022-09-21T04:11:11.056Z,5.78
2022-09-21T04:12:11.051Z,5.74
2022-09-21T04:13:11.081Z,5.71
2022-09-21T04:14:11.011Z,5.71
2022-09-21T04:15:11.009Z,5.67
2022-09-21T04:16:11.080Z,5.67
2022-09-21T04:17:11.051Z,5.65
2022-09-21T04:18:10.972Z,5.65
2022-09-21T04:19:10.972Z,5.63
2022-09-21T04:20:10.960Z,5.64
2022-09-21T04:21:10.982Z,5.64
2022-09-21T04:22:10.952Z,5.64
2022-09-21T04:23:10.946Z,5.63
2022-09-21T04:24:10.924Z,5.61
2022-09-21T04:25:10.926Z,5.60
2022-09-21T04:26:10.894Z,5.58
2022-09-21T04:27:10.923Z,5.57
2022-09-21T04:28:11.673Z,5.54
2022-09-21T04:29:10.892Z,5.56
2022-09-21T04:30:10.873Z,5.56
2022-09-21T04:31:11.391Z,5.56
2022-09-21T04:32:10.823Z,5.56
2022-09-21T04:33:10.846Z,5.51
2022-09-21T04:34:10.795Z,5.51
2022-09-21T04:35:10.846Z,5.53
2022-09-21T04:36:10.774Z,5.54
2022-09-21T04:37:10.775Z,5.57
2022-09-21T04:38:10.754Z,5.57
2022-09-21T04:39:10.797Z,5.58
2022-09-21T04:40:10.826Z,5.60
2022-09-21T04:41:11.457Z,5.57
2022-09-21T04:42:10.713Z,5.58
2022-09-21T04:43:10.716Z,5.58
2022-09-21T04:44:10.696Z,5.57
2022-09-21T04:45:10.727Z,5.56
2022-09-21T04:46:10.738Z,5.54
2022-09-21T04:47:10.752Z,5.56
2022-09-21T04:48:10.670Z,5.54
2022-09-21T04:49:10.636Z,5.57
2022-09-21T04:50:10.635Z,5.57
2022-09-21T04:51:10.643Z,5.54
2022-09-21T04:52:10.618Z,5.53
2022-09-21T04:53:10.599Z,5.54
2022-09-21T04:54:10.588Z,5.51
2022-09-21T04:55:10.579Z,5.49
2022-09-21T04:56:10.600Z,5.51
2022-09-21T04:57:10.549Z,5.51
2022-09-21T04:58:10.549Z,5.49
2022-09-21T04:59:10.529Z,5.48
2022-09-21T05:00:11.230Z,5.48
2022-09-21T05:01:10.541Z,5.49
2022-09-21T05:02:10.500Z,5.48
2022-09-21T05:03:10.490Z,5.46
2022-09-21T05:04:10.504Z,5.46
2022-09-21T05:05:10.468Z,5.49
2022-09-21T05:06:10.452Z,5.54
2022-09-21T05:07:10.440Z,5.54
2022-09-21T05:08:10.510Z,5.60
2022-09-21T05:09:10.422Z,5.58
2022-09-21T05:10:10.414Z,5.58
2022-09-21T05:11:10.415Z,5.60
2022-09-21T05:12:10.409Z,5.61
2022-09-21T05:13:10.383Z,5.63
2022-09-21T05:14:10.372Z,5.63
2022-09-21T05:15:10.352Z,5.60
2022-09-21T05:16:10.400Z,5.58
2022-09-21T05:17:10.374Z,5.61
2022-09-21T05:18:10.359Z,5.61
2022-09-21T05:19:10.315Z,5.60
2022-09-21T05:20:10.313Z,5.61
2022-09-21T05:21:10.295Z,5.60
2022-09-21T05:22:10.293Z,5.60
2022-09-21T05:23:14.802Z,5.57
2022-09-21T05:24:11.294Z,5.56
2022-09-21T05:25:10.256Z,5.57
2022-09-21T05:26:10.256Z,5.63
2022-09-21T05:27:10.236Z,5.64
2022-09-21T05:28:10.245Z,5.68
2022-09-21T05:29:10.225Z,5.72
2022-09-21T05:30:10.208Z,5.74
2022-09-21T05:31:17.635Z,5.76
2022-09-21T05:32:11.184Z,5.78
2022-09-21T05:33:10.167Z,5.85
2022-09-21T05:34:10.167Z,5.86
2022-09-21T05:35:10.705Z,5.91
2022-09-21T05:36:10.147Z,5.94
2022-09-21T05:37:10.150Z,6.03
2022-09-21T05:38:10.118Z,6.08
2022-09-21T05:39:10.106Z,6.08
2022-09-21T05:40:10.141Z,6.12
2022-09-21T05:41:10.272Z,6.15
2022-09-21T05:42:10.069Z,6.14
2022-09-21T05:43:10.079Z,6.14
2022-09-21T05:44:10.060Z,6.15
2022-09-21T05:45:10.050Z,6.19
2022-09-21T05:46:10.125Z,6.21
2022-09-21T05:47:10.046Z,6.25
2022-09-21T05:48:10.032Z,6.25
2022-09-21T05:49:10.024Z,6.27
2022-09-21T05:50:09.990Z,6.25
2022-09-21T05:51:09.981Z,6.22
2022-09-21T05:52:09.970Z,6.27
2022-09-21T05:53:09.951Z,6.27
2022-09-21T05:54:09.961Z,6.27
2022-09-21T05:55:09.951Z,6.28
2022-09-21T05:56:09.962Z,6.31
2022-09-21T05:57:09.921Z,6.36
2022-09-21T05:58:09.905Z,6.38
2022-09-21T05:59:09.890Z,6.40
2022-09-21T06:00:09.886Z,6.41
2022-09-21T06:01:09.930Z,6.44
2022-09-21T06:02:09.917Z,6.46
2022-09-21T06:03:11.534Z,6.49
2022-09-21T06:04:09.833Z,6.51
2022-09-21T06:05:09.823Z,6.55
2022-09-21T06:06:09.823Z,6.58
2022-09-21T06:07:09.794Z,6.62
2022-09-21T06:08:09.806Z,6.71
2022-09-21T06:09:09.786Z,6.79
2022-09-21T06:10:09.772Z,6.84
2022-09-21T06:11:09.765Z,6.87
2022-09-21T06:12:09.755Z,6.91
2022-09-21T06:13:09.736Z,6.92
2022-09-21T06:14:09.726Z,6.95
2022-09-21T06:15:09.716Z,7.02
2022-09-21T06:16:09.715Z,7.05
2022-09-21T06:17:09.703Z,7.13
2022-09-21T06:18:12.109Z,7.13
2022-09-21T06:19:09.675Z,7.23
2022-09-21T06:20:09.667Z,7.25
2022-09-21T06:21:09.766Z,7.30
2022-09-21T06:22:09.649Z,7.35
2022-09-21T06:23:09.629Z,7.40
2022-09-21T06:24:09.627Z,7.46
2022-09-21T06:25:09.719Z,7.49
2022-09-21T06:26:10.011Z,7.57
2022-09-21T06:27:09.590Z,7.58
2022-09-21T06:28:09.579Z,7.67
2022-09-21T06:29:09.566Z,7.72
2022-09-21T06:30:10.379Z,7.86
2022-09-21T06:31:09.614Z,7.98
2022-09-21T06:32:09.541Z,8.11
2022-09-21T06:33:09.529Z,8.20
2022-09-21T06:34:09.536Z,8.30
2022-09-21T06:35:09.508Z,8.38
2022-09-21T06:36:09.495Z,8.52
2022-09-21T06:37:09.490Z,8.56
2022-09-21T06:38:09.476Z,8.63
2022-09-21T06:39:09.462Z,8.70
2022-09-21T06:40:09.523Z,8.83
2022-09-21T06:41:09.452Z,8.94
2022-09-21T06:42:09.432Z,8.99
2022-09-21T06:43:09.419Z,9.11
2022-09-21T06:44:09.414Z,9.17
2022-09-21T06:45:09.394Z,9.17
2022-09-21T06:46:09.411Z,9.23
2022-09-21T06:47:09.383Z,9.28
2022-09-21T06:48:09.372Z,9.31
2022-09-21T06:49:10.163Z,9.36
2022-09-21T06:50:09.364Z,9.36
2022-09-21T06:51:09.343Z,9.39
2022-09-21T06:52:09.353Z,9.46
2022-09-21T06:53:09.449Z,9.46
2022-09-21T06:54:09.313Z,9.48
2022-09-21T06:55:09.297Z,9.54
2022-09-21T06:56:09.321Z,9.51
2022-09-21T06:57:09.395Z,9.54
2022-09-21T06:58:09.265Z,9.60
2022-09-21T06:59:09.246Z,9.61
2022-09-21T07:00:09.246Z,9.69
2022-09-21T07:01:10.048Z,9.72
2022-09-21T07:02:10.160Z,9.75
2022-09-21T07:03:09.315Z,9.79
2022-09-21T07:04:09.290Z,9.86
2022-09-21T07:05:09.189Z,9.89
2022-09-21T07:06:09.198Z,9.91
2022-09-21T07:07:09.164Z,9.93
2022-09-21T07:10:05.185Z,10.04
2022-09-21T07:10:14.432Z,10.11
2022-09-21T07:11:10.150Z,10.08
2022-09-21T07:12:09.117Z,10.02
2022-09-21T07:13:09.102Z,9.99
2022-09-21T07:14:09.093Z,9.97
2022-09-21T07:15:09.089Z,9.96
2022-09-21T07:16:09.178Z,10.01
2022-09-21T07:17:09.551Z,10.08
2022-09-21T07:18:09.060Z,10.15
2022-09-21T07:19:11.416Z,10.18
2022-09-21T07:20:09.031Z,10.23
2022-09-21T07:21:09.021Z,10.32
2022-09-21T07:22:09.089Z,10.34
2022-09-21T07:23:09.015Z,10.36
2022-09-21T07:24:12.151Z,10.41
2022-09-21T07:25:08.970Z,10.40
2022-09-21T07:26:08.972Z,10.45
2022-09-21T07:27:08.955Z,10.52
2022-09-21T07:28:08.946Z,10.60
2022-09-21T07:29:08.934Z,10.63
2022-09-21T07:30:09.355Z,10.70
2022-09-21T07:31:08.911Z,10.78
2022-09-21T07:32:08.897Z,10.78
2022-09-21T07:33:08.875Z,10.84
2022-09-21T07:34:08.875Z,10.86
2022-09-21T07:35:09.658Z,10.89
2022-09-21T07:36:08.852Z,10.88
2022-09-21T07:37:08.827Z,10.85
2022-09-21T07:38:08.834Z,10.92
2022-09-21T07:39:08.818Z,10.92
2022-09-21T07:40:08.852Z,10.92
2022-09-21T07:41:08.796Z,10.88
2022-09-21T07:42:08.787Z,10.88
2022-09-21T07:43:08.776Z,10.88
2022-09-21T07:44:08.789Z,10.94
2022-09-21T07:45:08.768Z,10.99
2022-09-21T07:46:08.801Z,11.06
2022-09-21T07:47:08.729Z,11.22
2022-09-21T07:48:08.750Z,11.33
2022-09-21T07:49:08.718Z,11.46
2022-09-21T07:50:08.699Z,11.57
2022-09-21T07:51:08.690Z,11.62
2022-09-21T07:52:10.995Z,11.73
2022-09-21T07:53:08.661Z,11.70
2022-09-21T07:54:08.661Z,11.69
2022-09-21T07:55:08.649Z,11.65
2022-09-21T07:56:08.643Z,11.61
2022-09-21T07:57:08.629Z,11.65
2022-09-21T07:58:08.639Z,11.54
2022-09-21T07:59:08.611Z,11.43
2022-09-21T08:00:08.591Z,11.37
2022-09-21T08:01:08.654Z,11.32
2022-09-21T08:02:08.622Z,11.28
2022-09-21T08:03:08.553Z,11.40
2022-09-21T08:04:08.601Z,11.54
2022-09-21T08:05:08.535Z,11.62
2022-09-21T08:06:08.524Z,11.69
2022-09-21T08:07:08.515Z,11.70
2022-09-21T08:08:08.514Z,11.62
2022-09-21T08:09:08.532Z,11.58
2022-09-21T08:10:08.492Z,11.62
2022-09-21T08:11:08.856Z,11.69
2022-09-21T08:12:08.465Z,11.79
2022-09-21T08:13:08.454Z,11.85
2022-09-21T08:14:08.446Z,11.88
2022-09-21T08:15:20.389Z,11.91
2022-09-21T08:16:09.478Z,11.86
2022-09-21T08:17:08.409Z,11.73
2022-09-21T08:18:09.056Z,11.79
2022-09-21T08:19:08.506Z,11.88
2022-09-21T08:20:08.378Z,11.98
2022-09-21T08:21:08.493Z,12.17
2022-09-21T08:22:08.366Z,12.39
2022-09-21T08:23:08.338Z,12.64
2022-09-21T08:24:08.338Z,12.65
2022-09-21T08:25:08.329Z,12.71
2022-09-21T08:26:08.320Z,12.78
2022-09-21T08:27:08.317Z,12.56
2022-09-21T08:28:10.055Z,12.39
2022-09-21T08:29:08.294Z,12.23
2022-09-21T08:30:08.272Z,12.14
2022-09-21T08:31:08.311Z,12.16
2022-09-21T08:32:08.280Z,12.27
2022-09-21T08:33:08.270Z,12.42
2022-09-21T08:34:08.251Z,12.45
2022-09-21T08:35:08.214Z,12.64
2022-09-21T08:36:08.212Z,12.70
2022-09-21T08:37:08.195Z,12.71
2022-09-21T08:38:08.208Z,12.83
2022-09-21T08:39:08.199Z,12.90
2022-09-21T08:40:08.219Z,12.96
2022-09-21T08:41:08.158Z,12.92
2022-09-21T08:42:08.142Z,12.95
2022-09-21T08:43:08.125Z,13.08
2022-09-21T08:44:08.179Z,13.25
2022-09-21T08:45:08.111Z,13.41
2022-09-21T08:46:08.115Z,13.45
2022-09-21T08:47:08.095Z,13.33
2022-09-21T08:48:08.255Z,13.15
2022-09-21T08:49:08.078Z,13.29
2022-09-21T08:50:08.056Z,13.49
2022-09-21T08:51:08.047Z,13.71
2022-09-21T08:52:08.036Z,13.81
2022-09-21T08:53:08.043Z,13.46
2022-09-21T08:54:08.020Z,13.12
2022-09-21T08:55:08.169Z,13.23
2022-09-21T08:56:07.998Z,13.30
2022-09-21T08:57:08.480Z,13.15
2022-09-21T08:58:07.994Z,13.19
2022-09-21T08:59:08.029Z,13.30
2022-09-21T09:00:07.948Z,13.46
2022-09-21T09:01:08.017Z,13.67
2022-09-21T09:02:08.016Z,14.00
2022-09-21T09:03:07.911Z,14.20
2022-09-21T09:04:08.077Z,14.33
2022-09-21T09:05:07.899Z,14.51
2022-09-21T09:06:07.879Z,14.72
2022-09-21T09:07:07.873Z,14.92
2022-09-21T09:08:07.861Z,15.13
2022-09-21T09:09:07.974Z,15.27
2022-09-21T09:10:07.845Z,15.23
2022-09-21T09:11:07.843Z,15.20
2022-09-21T09:12:10.981Z,14.94
2022-09-21T09:13:08.334Z,14.95
2022-09-21T09:14:07.808Z,14.83
2022-09-21T09:15:07.785Z,14.91
2022-09-21T09:16:07.868Z,14.72
2022-09-21T09:17:07.765Z,14.52
2022-09-21T09:18:07.745Z,14.42
2022-09-21T09:19:07.764Z,14.46
2022-09-21T09:20:07.745Z,14.54
2022-09-21T09:21:08.396Z,14.55
2022-09-21T09:22:07.707Z,14.42
2022-09-21T09:23:07.697Z,14.42
2022-09-21T09:24:07.796Z,14.36
2022-09-21T09:25:07.677Z,14.55
2022-09-21T09:26:07.678Z,14.64
2022-09-21T09:27:07.659Z,14.52
2022-09-21T09:28:07.639Z,14.60
2022-09-21T09:29:07.639Z,14.77
2022-09-21T09:30:07.619Z,14.98
2022-09-21T09:31:07.647Z,14.95
2022-09-21T09:32:07.613Z,15.06
2022-09-21T09:33:07.602Z,15.14
2022-09-21T09:34:07.590Z,15.10
2022-09-21T09:35:07.618Z,14.98
2022-09-21T09:36:07.563Z,15.09
2022-09-21T09:37:07.549Z,15.09
2022-09-21T09:38:07.539Z,15.20
2022-09-21T09:39:07.612Z,15.14
2022-09-21T09:40:07.556Z,15.25
2022-09-21T09:41:07.503Z,15.51
2022-09-21T09:42:07.506Z,15.65
2022-09-21T09:43:07.492Z,15.67
2022-09-21T09:44:07.524Z,15.65
2022-09-21T09:45:07.461Z,15.64
2022-09-21T09:46:10.925Z,15.71
2022-09-21T09:47:07.483Z,15.41
2022-09-21T09:48:08.215Z,15.13
2022-09-21T09:49:07.426Z,15.25
2022-09-21T09:50:07.417Z,15.47
2022-09-21T09:51:07.396Z,15.68
2022-09-21T09:52:07.406Z,15.90
2022-09-21T09:53:07.546Z,15.78
2022-09-21T09:54:10.271Z,15.84
2022-09-21T09:55:07.467Z,15.90
2022-09-21T09:56:07.338Z,15.82
2022-09-21T09:57:07.342Z,15.89
2022-09-21T09:58:07.318Z,15.72
2022-09-21T09:59:07.312Z,15.74
2022-09-21T10:00:07.291Z,15.78
2022-09-21T10:01:07.301Z,15.89
2022-09-21T10:02:07.432Z,16.05
2022-09-21T10:03:07.262Z,16.27
2022-09-21T10:04:07.547Z,16.42
2022-09-21T10:05:07.268Z,16.52
2022-09-21T10:06:07.235Z,16.66
2022-09-21T10:07:07.224Z,16.66
2022-09-21T10:08:07.211Z,16.67
2022-09-21T10:09:07.314Z,16.81
2022-09-21T10:10:07.183Z,16.96
2022-09-21T10:11:07.284Z,16.88
2022-09-21T10:12:10.401Z,16.64
2022-09-21T10:13:07.174Z,16.24
2022-09-21T10:14:07.152Z,16.21
2022-09-21T10:15:07.148Z,16.21
2022-09-21T10:16:07.145Z,16.30
2022-09-21T10:17:07.127Z,16.38
2022-09-21T10:18:07.125Z,16.52
2022-09-21T10:19:07.106Z,16.70
2022-09-21T10:20:07.095Z,16.85
2022-09-21T10:21:07.086Z,16.94
2022-09-21T10:22:07.071Z,17.07
2022-09-21T10:23:07.058Z,17.16
2022-09-21T10:24:07.045Z,17.25
2022-09-21T10:25:07.078Z,17.31
2022-09-21T10:26:07.025Z,17.14
2022-09-21T10:27:07.031Z,17.08
2022-09-21T10:28:06.991Z,17.21
2022-09-21T10:29:07.818Z,17.33
2022-09-21T10:30:06.991Z,17.44
2022-09-21T10:31:07.009Z,17.54
2022-09-21T10:32:11.107Z,17.52
2022-09-21T10:33:07.962Z,17.62
2022-09-21T10:34:07.042Z,17.63
2022-09-21T10:35:06.962Z,17.49
2022-09-21T10:36:06.923Z,17.40
2022-09-21T10:37:06.911Z,17.34
2022-09-21T10:38:06.893Z,17.36
2022-09-21T10:39:06.886Z,17.38
2022-09-21T10:40:06.927Z,17.48
2022-09-21T10:41:06.863Z,17.64
2022-09-21T10:42:06.845Z,17.77
2022-09-21T10:43:06.839Z,17.90
2022-09-21T10:44:06.824Z,17.87
2022-09-21T10:45:06.824Z,17.92
2022-09-21T10:46:06.817Z,18.05
2022-09-21T10:47:06.795Z,18.23
2022-09-21T10:48:06.936Z,18.25
2022-09-21T10:49:06.871Z,18.17
2022-09-21T10:50:06.757Z,17.95
2022-09-21T10:51:06.758Z,17.77
2022-09-21T10:52:06.757Z,17.68
2022-09-21T10:53:06.743Z,17.84
2022-09-21T10:54:06.897Z,17.86
2022-09-21T10:55:06.700Z,18.03
2022-09-21T10:56:21.919Z,18.14
2022-09-21T10:57:08.080Z,18.17
2022-09-21T10:58:06.679Z,18.00
2022-09-21T10:59:06.662Z,18.02
2022-09-21T11:00:06.667Z,17.95
2022-09-21T11:01:06.699Z,18.03
2022-09-21T11:02:06.709Z,17.90
2022-09-21T11:03:06.708Z,18.00
2022-09-21T11:04:06.742Z,18.10
2022-09-21T11:05:06.650Z,18.07
2022-09-21T11:06:06.600Z,18.27
2022-09-21T11:07:06.579Z,18.39
2022-09-21T11:08:06.563Z,18.51
2022-09-21T11:09:06.555Z,18.69
2022-09-21T11:10:06.576Z,18.80
2022-09-21T11:11:06.669Z,18.85
2022-09-21T11:12:06.515Z,18.98
2022-09-21T11:13:06.577Z,19.08
2022-09-21T11:14:06.506Z,19.23
2022-09-21T11:15:06.523Z,19.28
2022-09-21T11:16:06.543Z,19.23
2022-09-21T11:17:06.505Z,19.40
2022-09-21T11:18:07.260Z,19.16
2022-09-21T11:19:06.639Z,19.14
2022-09-21T11:20:06.437Z,19.28
2022-09-21T11:21:06.437Z,19.36
2022-09-21T11:22:06.413Z,19.41
2022-09-21T11:23:06.420Z,19.23
2022-09-21T11:24:06.586Z,18.94
2022-09-21T11:25:06.378Z,18.98
2022-09-21T11:26:06.360Z,19.14
2022-09-21T11:27:06.368Z,19.04
2022-09-21T11:28:06.340Z,19.22
2022-09-21T11:29:06.446Z,19.22
2022-09-21T11:30:06.324Z,19.41
2022-09-21T11:31:06.389Z,19.32
2022-09-21T11:32:06.384Z,19.28
2022-09-21T11:33:06.302Z,19.29
2022-09-21T11:34:06.440Z,19.25
2022-09-21T11:35:06.273Z,19.32
2022-09-21T11:36:06.253Z,19.41
2022-09-21T11:37:06.264Z,19.41
2022-09-21T11:38:06.244Z,19.48
2022-09-21T11:39:06.235Z,19.69
2022-09-21T11:40:06.246Z,19.92
2022-09-21T11:41:06.251Z,19.98
2022-09-21T11:42:06.298Z,19.81
2022-09-21T11:43:06.187Z,19.77
2022-09-21T11:44:08.771Z,19.58
2022-09-21T11:45:06.167Z,19.74
2022-09-21T11:46:06.171Z,19.86
2022-09-21T11:47:06.145Z,19.56
2022-09-21T11:48:06.129Z,19.37
2022-09-21T11:49:06.281Z,19.23
2022-09-21T11:50:29.105Z,19.19
2022-09-21T11:51:07.120Z,19.11
2022-09-21T11:52:06.087Z,18.84
2022-09-21T11:53:06.096Z,18.55
2022-09-21T11:54:06.103Z,18.57
2022-09-21T11:55:06.055Z,18.92
2022-09-21T11:56:06.041Z,19.16
2022-09-21T11:57:06.051Z,19.29
2022-09-21T11:58:06.026Z,19.44
2022-09-21T11:59:06.102Z,19.40
2022-09-21T12:00:06.009Z,19.48
2022-09-21T12:01:06.008Z,19.55
2022-09-21T12:02:06.128Z,19.18
2022-09-21T12:03:05.976Z,19.04
2022-09-21T12:04:05.963Z,18.76
2022-09-21T12:05:05.955Z,18.55
2022-09-21T12:06:06.208Z,18.39
2022-09-21T12:07:05.932Z,18.29
2022-09-21T12:08:05.918Z,18.54
2022-09-21T12:09:05.907Z,18.57
2022-09-21T12:10:08.845Z,18.36
2022-09-21T12:11:06.887Z,18.37
2022-09-21T12:12:05.879Z,18.37
2022-09-21T12:13:05.859Z,18.69
2022-09-21T12:14:05.848Z,18.84
2022-09-21T12:15:05.963Z,19.00
2022-09-21T12:16:05.854Z,19.06
2022-09-21T12:17:06.043Z,19.18
2022-09-21T12:18:05.815Z,19.06
2022-09-21T12:19:05.903Z,18.87
2022-09-21T12:20:05.781Z,18.70
2022-09-21T12:21:05.774Z,18.44
2022-09-21T12:22:05.762Z,18.37
2022-09-21T12:23:05.772Z,18.25
2022-09-21T12:24:05.741Z,18.25
2022-09-21T12:25:05.754Z,18.08
2022-09-21T12:26:05.713Z,18.14
2022-09-21T12:27:06.239Z,18.30
2022-09-21T12:28:05.694Z,18.44
2022-09-21T12:29:05.708Z,18.45
2022-09-21T12:30:05.674Z,18.29
2022-09-21T12:31:05.760Z,18.35
2022-09-21T12:32:05.655Z,18.62
2022-09-21T12:33:05.654Z,18.84
2022-09-21T12:34:05.695Z,18.75
2022-09-21T12:35:05.627Z,18.87
2022-09-21T12:36:05.610Z,18.58
2022-09-21T12:37:05.608Z,18.29
2022-09-21T12:38:05.595Z,18.08
2022-09-21T12:39:05.846Z,18.12
2022-09-21T12:40:05.604Z,18.21
2022-09-21T12:41:05.571Z,18.20
2022-09-21T12:42:05.559Z,18.37
2022-09-21T12:43:06.631Z,18.54
2022-09-21T12:44:05.530Z,18.44
2022-09-21T12:45:05.529Z,18.44
2022-09-21T12:46:05.569Z,18.44
2022-09-21T12:47:05.495Z,18.55
2022-09-21T12:48:05.481Z,18.62
2022-09-21T12:49:05.496Z,18.82
2022-09-21T12:50:05.476Z,18.55
2022-09-21T12:51:06.382Z,18.42
2022-09-21T12:52:05.541Z,18.33
2022-09-21T12:53:05.441Z,18.29
2022-09-21T12:54:05.540Z,18.32
2022-09-21T12:55:05.412Z,18.47
2022-09-21T12:56:09.600Z,18.52
2022-09-21T12:57:23.613Z,18.58
2022-09-21T12:58:21.643Z,18.51
2022-09-21T12:59:06.556Z,18.37
2022-09-21T13:00:05.357Z,18.29
2022-09-21T13:01:05.584Z,18.39
2022-09-21T13:02:05.616Z,18.50
2022-09-21T13:03:08.334Z,18.50
2022-09-21T13:04:06.439Z,18.54
2022-09-21T13:05:05.318Z,18.14
2022-09-21T13:06:05.298Z,18.12
2022-09-21T13:07:05.318Z,18.29
2022-09-21T13:08:05.277Z,18.60
2022-09-21T13:09:08.549Z,18.75
2022-09-21T13:10:06.264Z,18.82
2022-09-21T13:11:05.251Z,18.78
2022-09-21T13:12:06.012Z,18.47
2022-09-21T13:13:05.223Z,18.14
2022-09-21T13:14:05.203Z,18.11
2022-09-21T13:15:05.205Z,18.14